Time;durP1;ratioP1;P1;durP2;ratioP2;P2;SDS_P1;SDS_P2;PMS_P1;PMS_P2;Temp;Humidity;BMP_temperature;BMP_pressure;BME280_temperature;BME280_humidity;BME280_pressure;Samples;Min_cycle;Max_cycle;Signal;HPM_P1;HPM_P2
2023/03/18 00:00:15;;;;;;;0.80;0.43;;;17.10;63.70;;;;;;5109854;27;45270;-78
2023/03/18 00:02:42;;;;;;;0.52;0.40;;;17.10;63.60;;;;;;5110313;27;45130;-79
2023/03/18 00:05:12;;;;;;;1.00;0.60;;;17.10;63.60;;;;;;5109943;27;45555;-77
2023/03/18 00:07:40;;;;;;;0.45;0.40;;;17.10;63.70;;;;;;5109508;27;46525;-78
2023/03/18 00:10:08;;;;;;;0.95;0.30;;;17.10;63.80;;;;;;5109298;27;45124;-78
2023/03/18 00:12:37;;;;;;;0.85;0.47;;;17.10;63.70;;;;;;5109595;27;45129;-78
2023/03/18 00:15:05;;;;;;;1.92;0.50;;;17.10;63.90;;;;;;5109651;27;45608;-79
2023/03/18 00:17:32;;;;;;;1.35;0.30;;;17.10;63.90;;;;;;5109182;27;46430;-79
2023/03/18 00:20:04;;;;;;;0.85;0.57;;;17.10;63.80;;;;;;5109391;27;45278;-78
2023/03/18 00:22:32;;;;;;;0.50;0.40;;;17.10;63.90;;;;;;5109586;27;45184;-78
2023/03/18 00:24:59;;;;;;;1.17;0.45;;;17.10;63.90;;;;;;5109557;27;45140;-78
2023/03/18 00:27:26;;;;;;;0.77;0.50;;;17.10;64.00;;;;;;5109213;27;46469;-79
2023/03/18 00:29:53;;;;;;;0.65;0.25;;;17.10;64.00;;;;;;5109223;27;45189;-79
2023/03/18 00:32:20;;;;;;;0.80;0.45;;;17.10;64.00;;;;;;5109464;27;45294;-79
2023/03/18 00:34:47;;;;;;;0.60;0.47;;;17.00;63.90;;;;;;5108333;27;45145;-78
2023/03/18 00:37:18;;;;;;;0.65;0.50;;;17.00;63.90;;;;;;5112507;27;46442;-78
2023/03/18 00:39:47;;;;;;;0.82;0.30;;;17.00;63.90;;;;;;5109754;27;45384;-79
2023/03/18 00:42:14;;;;;;;0.80;0.43;;;17.00;63.90;;;;;;5108880;27;45194;-79
2023/03/18 00:44:42;;;;;;;0.75;0.50;;;17.10;64.00;;;;;;5109222;27;45539;-78
2023/03/18 00:47:09;;;;;;;1.23;0.50;;;17.10;64.00;;;;;;5108585;27;46552;-78
2023/03/18 00:49:36;;;;;;;1.20;0.55;;;17.10;63.80;;;;;;5108870;27;45236;-79
2023/03/18 00:52:03;;;;;;;1.38;0.40;;;17.10;63.90;;;;;;5109085;27;45174;-79
2023/03/18 00:54:30;;;;;;;0.90;0.50;;;17.10;63.80;;;;;;5108776;27;45215;-78
2023/03/18 00:56:58;;;;;;;1.25;0.50;;;17.10;63.70;;;;;;5108555;27;48043;-79
2023/03/18 00:59:26;;;;;;;0.60;0.40;;;17.10;63.80;;;;;;5108438;27;45175;-79
2023/03/18 01:01:53;;;;;;;2.20;0.60;;;17.10;63.80;;;;;;5113891;27;45366;-71
2023/03/18 01:04:20;;;;;;;1.35;0.63;;;17.10;63.50;;;;;;5108780;27;45610;-78
2023/03/18 01:06:47;;;;;;;0.95;0.50;;;17.20;63.60;;;;;;5108727;27;45265;-79
2023/03/18 01:09:15;;;;;;;0.85;0.50;;;17.20;63.70;;;;;;5108381;27;45162;-79
2023/03/18 01:11:42;;;;;;;1.45;0.47;;;17.10;63.60;;;;;;5108697;27;45195;-79
2023/03/18 01:14:11;;;;;;;0.73;0.50;;;17.10;63.70;;;;;;5108782;27;45227;-79
2023/03/18 01:16:38;;;;;;;1.42;0.60;;;17.10;63.60;;;;;;5108312;27;48550;-79
2023/03/18 01:19:05;;;;;;;1.35;0.40;;;17.10;63.60;;;;;;5108307;27;45219;-79
2023/03/18 01:21:32;;;;;;;1.10;0.50;;;17.10;63.70;;;;;;5108679;27;45159;-79
2023/03/18 01:24:00;;;;;;;0.70;0.50;;;17.10;63.80;;;;;;5108397;27;45600;-79
2023/03/18 01:26:27;;;;;;;3.00;1.50;;;17.10;63.90;;;;;;5108143;27;45658;-78
2023/03/18 01:28:54;;;;;;;5.22;1.85;;;17.10;64.20;;;;;;5110426;27;45224;-78
2023/03/18 01:31:23;;;;;;;3.80;1.73;;;17.10;64.40;;;;;;5110484;27;45383;-79
2023/03/18 01:33:50;;;;;;;2.72;1.70;;;17.10;64.70;;;;;;5108449;27;45139;-78
2023/03/18 01:36:16;;;;;;;2.40;1.50;;;17.10;64.80;;;;;;5108098;27;46389;-79
2023/03/18 01:38:43;;;;;;;2.42;1.30;;;17.10;65.00;;;;;;5107827;27;46492;-79
2023/03/18 01:41:11;;;;;;;1.98;1.23;;;17.10;64.90;;;;;;5108335;27;45221;-79
2023/03/18 01:43:41;;;;;;;2.67;1.20;;;17.10;64.80;;;;;;5108238;27;45435;-78
2023/03/18 01:46:31;;;;;;;1.95;0.95;;;17.10;64.70;;;;;;5108146;27;45285;-79
2023/03/18 01:48:58;;;;;;;2.65;1.15;;;17.10;64.70;;;;;;5108326;27;45167;-79
2023/03/18 01:51:28;;;;;;;2.53;1.05;;;17.10;64.30;;;;;;5108072;27;45118;-78
2023/03/18 01:53:59;;;;;;;3.05;1.45;;;17.10;64.30;;;;;;5107844;27;45393;-79
2023/03/18 01:56:26;;;;;;;2.55;0.95;;;17.10;64.40;;;;;;5104583;27;45683;-79
2023/03/18 01:58:57;;;;;;;3.38;0.93;;;17.10;64.40;;;;;;5107692;27;45224;-78
2023/03/18 02:01:28;;;;;;;1.38;0.90;;;17.10;64.30;;;;;;5107792;27;45080;-78
2023/03/18 02:03:58;;;;;;;1.77;1.00;;;17.10;64.30;;;;;;5108316;27;45440;-79
2023/03/18 02:06:25;;;;;;;1.33;0.93;;;17.20;64.50;;;;;;5107772;27;47289;-78
2023/03/18 02:08:54;;;;;;;1.98;0.80;;;17.10;64.30;;;;;;5107904;27;45485;-78
2023/03/18 02:11:22;;;;;;;3.08;1.17;;;17.10;64.50;;;;;;5107942;27;45373;-78
2023/03/18 02:13:49;;;;;;;1.83;0.90;;;17.10;64.50;;;;;;5107909;27;45140;-78
2023/03/18 02:16:21;;;;;;;2.45;1.20;;;17.10;64.60;;;;;;5107623;27;46491;-78
2023/03/18 02:18:51;;;;;;;2.53;1.00;;;17.10;64.50;;;;;;5107650;27;45207;-79
2023/03/18 02:21:32;;;;;;;1.80;0.70;;;17.10;64.60;;;;;;5107796;27;45340;-78
2023/03/18 02:24:09;;;;;;;1.30;0.77;;;17.10;64.60;;;;;;5108481;27;45130;-78
2023/03/18 02:26:44;;;;;;;1.42;1.00;;;17.10;64.70;;;;;;5104549;27;45795;-78
2023/03/18 02:29:14;;;;;;;1.10;0.77;;;17.10;64.70;;;;;;5107457;27;45754;-79
2023/03/18 02:31:42;;;;;;;2.25;0.90;;;17.10;64.70;;;;;;5107213;27;45219;-79
2023/03/18 02:34:10;;;;;;;1.95;1.05;;;17.10;64.60;;;;;;5107246;27;45276;-78
2023/03/18 02:36:37;;;;;;;1.30;0.80;;;17.10;64.70;;;;;;5107015;27;45255;-79
2023/03/18 02:39:05;;;;;;;2.25;0.90;;;17.10;64.70;;;;;;5106958;27;45316;-78
2023/03/18 02:41:34;;;;;;;1.50;0.85;;;17.10;64.50;;;;;;5107315;27;45355;-78
2023/03/18 02:44:02;;;;;;;1.55;0.77;;;17.10;64.40;;;;;;5107239;27;45273;-78
2023/03/18 02:46:41;;;;;;;1.30;0.80;;;17.10;64.40;;;;;;5106708;27;46292;-79
2023/03/18 02:49:08;;;;;;;1.42;0.90;;;17.10;64.30;;;;;;5106968;27;45212;-79
2023/03/18 02:51:36;;;;;;;1.17;0.70;;;17.20;64.20;;;;;;5106857;27;45185;-79
2023/03/18 02:54:07;;;;;;;1.73;0.80;;;17.20;64.30;;;;;;5106942;27;45257;-78
2023/03/18 02:56:34;;;;;;;1.95;0.80;;;17.10;64.20;;;;;;5106900;27;47341;-79
2023/03/18 02:59:01;;;;;;;1.92;0.80;;;17.20;64.30;;;;;;5106121;27;45960;-79
2023/03/18 03:01:28;;;;;;;0.93;0.70;;;17.20;64.30;;;;;;5106937;27;45352;-79
2023/03/18 03:03:56;;;;;;;1.70;0.90;;;17.20;64.20;;;;;;5106914;27;45213;-79
2023/03/18 03:06:24;;;;;;;1.83;0.90;;;17.20;64.20;;;;;;5106980;27;47336;-79
2023/03/18 03:08:51;;;;;;;1.27;0.80;;;17.20;64.20;;;;;;5106487;27;45281;-79
2023/03/18 03:11:18;;;;;;;1.52;0.68;;;17.20;64.20;;;;;;5106762;27;45164;-79
2023/03/18 03:13:45;;;;;;;2.60;0.85;;;17.20;64.20;;;;;;5106701;27;45572;-79
2023/03/18 03:16:14;;;;;;;1.20;0.90;;;17.20;64.20;;;;;;5110053;27;47261;-79
2023/03/18 03:18:41;;;;;;;1.10;0.60;;;17.20;64.30;;;;;;5106689;27;45122;-79
2023/03/18 03:21:10;;;;;;;1.40;0.80;;;17.20;64.20;;;;;;5106908;27;45091;-79
2023/03/18 03:23:37;;;;;;;1.40;0.80;;;17.20;64.20;;;;;;5106917;27;45305;-79
2023/03/18 03:26:05;;;;;;;1.08;0.60;;;17.20;64.20;;;;;;5106365;27;46902;-79
2023/03/18 03:28:33;;;;;;;1.73;0.80;;;17.20;64.10;;;;;;5106741;27;45148;-79
2023/03/18 03:31:00;;;;;;;1.00;0.70;;;17.20;64.20;;;;;;5106299;27;45237;-79
2023/03/18 03:33:28;;;;;;;0.52;0.52;;;17.10;64.10;;;;;;5106628;27;45550;-79
2023/03/18 03:35:56;;;;;;;0.98;0.60;;;17.20;64.20;;;;;;5106394;27;47588;-79
2023/03/18 03:38:25;;;;;;;0.95;0.60;;;17.20;64.20;;;;;;5106346;27;45161;-79
2023/03/18 03:40:53;;;;;;;1.17;0.70;;;17.10;64.20;;;;;;5106380;27;45163;-79
2023/03/18 03:43:20;;;;;;;1.13;0.60;;;17.10;64.20;;;;;;5106514;27;45492;-79
2023/03/18 03:45:46;;;;;;;1.63;0.60;;;17.10;64.20;;;;;;5106369;27;45390;-79
2023/03/18 03:48:13;;;;;;;1.35;0.70;;;17.10;64.20;;;;;;5106702;27;45069;-79
2023/03/18 03:50:40;;;;;;;0.68;0.47;;;17.10;64.20;;;;;;5106382;27;45234;-79
2023/03/18 03:53:09;;;;;;;1.15;0.90;;;17.10;64.30;;;;;;5106302;27;45300;-79
2023/03/18 03:55:37;;;;;;;0.80;0.52;;;17.10;64.30;;;;;;5106183;27;47847;-79
2023/03/18 03:58:04;;;;;;;0.47;0.40;;;17.10;64.20;;;;;;5106348;27;45279;-79
2023/03/18 04:00:31;;;;;;;3.92;0.88;;;17.10;64.00;;;;;;5106545;27;45224;-79
2023/03/18 04:02:58;;;;;;;2.75;0.60;;;17.10;64.00;;;;;;5106529;27;45205;-79
2023/03/18 04:05:25;;;;;;;0.88;0.60;;;17.20;64.00;;;;;;5105922;27;46561;-79
2023/03/18 04:07:54;;;;;;;1.02;0.50;;;17.20;63.90;;;;;;5108317;27;45303;-79
2023/03/18 04:10:21;;;;;;;2.88;0.75;;;17.20;63.80;;;;;;5109151;27;45178;-79
2023/03/18 04:12:50;;;;;;;1.00;0.60;;;17.20;63.90;;;;;;5109497;27;45217;-78
2023/03/18 04:15:20;;;;;;;1.15;0.60;;;17.20;63.90;;;;;;5109053;27;47307;-79
2023/03/18 04:17:47;;;;;;;0.60;0.60;;;17.20;63.80;;;;;;5109480;27;45326;-79
2023/03/18 04:20:15;;;;;;;0.70;0.43;;;17.20;63.90;;;;;;5109598;27;45375;-80
2023/03/18 04:22:43;;;;;;;0.43;0.43;;;17.20;63.90;;;;;;5109673;27;45525;-79
2023/03/18 04:25:13;;;;;;;0.45;0.40;;;17.10;63.90;;;;;;5109016;27;46504;-79
2023/03/18 04:27:40;;;;;;;0.75;0.40;;;17.10;63.90;;;;;;5109348;27;45169;-79
2023/03/18 04:30:11;;;;;;;1.20;0.57;;;17.10;64.10;;;;;;5109411;27;45096;-79
2023/03/18 04:32:38;;;;;;;1.35;0.68;;;17.10;64.00;;;;;;5109466;27;45575;-79
2023/03/18 04:35:05;;;;;;;2.33;0.60;;;17.10;64.10;;;;;;5108638;27;46331;-79
2023/03/18 04:37:34;;;;;;;1.38;0.63;;;17.10;64.10;;;;;;5109079;27;45140;-79
2023/03/18 04:40:01;;;;;;;0.52;0.40;;;17.10;64.20;;;;;;5109454;27;45213;-79
2023/03/18 04:42:28;;;;;;;1.13;0.55;;;17.10;64.20;;;;;;5109146;27;45637;-79
2023/03/18 04:44:54;;;;;;;1.20;0.47;;;17.10;64.20;;;;;;5108756;27;45355;-79
2023/03/18 04:47:22;;;;;;;1.30;0.68;;;17.10;64.20;;;;;;5109034;27;45094;-79
2023/03/18 04:49:49;;;;;;;1.50;0.60;;;17.10;65.20;;;;;;5108789;27;45117;-80
2023/03/18 04:52:16;;;;;;;1.30;0.68;;;17.10;64.00;;;;;;5108959;27;45205;-79
2023/03/18 04:54:43;;;;;;;1.15;0.60;;;17.10;64.00;;;;;;5108589;27;47087;-79
2023/03/18 04:57:10;;;;;;;1.67;0.60;;;17.10;64.00;;;;;;5108942;27;45257;-79
2023/03/18 04:59:36;;;;;;;0.80;0.50;;;17.10;63.90;;;;;;5109238;27;45327;-79
2023/03/18 05:02:03;;;;;;;1.85;0.85;;;17.10;63.90;;;;;;5112675;27;45115;-80
2023/03/18 05:04:32;;;;;;;0.95;0.47;;;17.10;63.90;;;;;;5108966;27;45578;-79
2023/03/18 05:06:59;;;;;;;1.33;0.60;;;17.10;63.90;;;;;;5108665;27;45822;-79
2023/03/18 05:09:26;;;;;;;0.30;0.30;;;17.50;64.30;;;;;;5109078;27;45095;-79
2023/03/18 05:11:53;;;;;;;0.93;0.50;;;17.20;64.00;;;;;;5108671;27;45255;-79
2023/03/18 05:14:20;;;;;;;0.73;0.52;;;17.10;64.00;;;;;;5108205;27;48808;-79
2023/03/18 05:16:47;;;;;;;0.47;0.47;;;17.10;64.00;;;;;;5108658;27;45206;-79
2023/03/18 05:19:14;;;;;;;1.33;0.60;;;17.10;64.10;;;;;;5108393;27;45216;-80
2023/03/18 05:21:42;;;;;;;0.50;0.40;;;17.10;64.10;;;;;;5108223;27;45107;-79
2023/03/18 05:24:09;;;;;;;0.60;0.40;;;17.10;64.00;;;;;;5108534;27;48135;-79
2023/03/18 05:26:37;;;;;;;1.05;0.60;;;17.10;64.00;;;;;;5108281;27;45162;-79
2023/03/18 05:29:04;;;;;;;0.85;0.60;;;17.10;64.10;;;;;;5108711;27;45216;-79
2023/03/18 05:31:31;;;;;;;1.02;0.52;;;17.10;64.20;;;;;;5108476;27;45412;-79
2023/03/18 05:33:59;;;;;;;0.63;0.40;;;17.10;64.10;;;;;;5108213;27;46592;-79
2023/03/18 05:36:26;;;;;;;0.95;0.50;;;17.10;64.20;;;;;;5108106;27;45308;-79
2023/03/18 05:38:54;;;;;;;0.60;0.40;;;17.10;64.10;;;;;;5108049;27;45163;-79
2023/03/18 05:41:20;;;;;;;0.40;0.25;;;17.10;64.10;;;;;;5108406;27;45188;-79
2023/03/18 05:43:47;;;;;;;1.25;0.50;;;17.10;64.20;;;;;;5107544;27;47327;-79
2023/03/18 05:46:14;;;;;;;0.68;0.50;;;17.10;64.00;;;;;;5107836;27;45150;-79
2023/03/18 05:48:42;;;;;;;0.55;0.50;;;17.10;64.10;;;;;;5108180;27;45200;-79
2023/03/18 05:51:09;;;;;;;1.25;0.55;;;17.10;65.00;;;;;;5108153;27;45190;-79
2023/03/18 05:53:36;;;;;;;1.30;0.50;;;17.10;63.90;;;;;;5109187;27;47316;-79
2023/03/18 05:56:04;;;;;;;0.65;0.43;;;17.10;63.90;;;;;;5109745;27;45140;-79
2023/03/18 05:58:31;;;;;;;1.00;0.50;;;17.10;63.80;;;;;;5108323;27;45245;-79
2023/03/18 06:00:59;;;;;;;0.50;0.32;;;17.10;63.80;;;;;;5108084;27;45151;-79
2023/03/18 06:03:26;;;;;;;0.70;0.47;;;17.10;63.70;;;;;;5107512;27;46581;-79
2023/03/18 06:05:53;;;;;;;0.68;0.43;;;17.10;63.70;;;;;;5108256;27;45241;-79
2023/03/18 06:08:21;;;;;;;0.65;0.57;;;17.10;63.70;;;;;;5107933;27;45113;-79
2023/03/18 06:10:48;;;;;;;0.77;0.50;;;17.10;63.70;;;;;;5108041;27;45403;-79
2023/03/18 06:13:16;;;;;;;0.28;0.28;;;17.10;63.80;;;;;;5107390;27;45417;-79
2023/03/18 06:15:43;;;;;;;1.40;0.50;;;17.10;63.80;;;;;;5107388;27;45350;-79
2023/03/18 06:18:10;;;;;;;0.75;0.52;;;17.10;63.80;;;;;;5107407;27;45169;-79
2023/03/18 06:20:37;;;;;;;0.77;0.57;;;17.10;63.80;;;;;;5107332;27;45574;-79
2023/03/18 06:23:04;;;;;;;0.90;0.45;;;17.10;63.80;;;;;;5107232;27;46544;-79
2023/03/18 06:25:31;;;;;;;0.43;0.30;;;17.10;63.80;;;;;;5107399;27;45179;-79
2023/03/18 06:27:58;;;;;;;0.50;0.40;;;17.10;63.80;;;;;;5107440;27;45356;-80
2023/03/18 06:30:27;;;;;;;1.02;0.50;;;17.10;63.80;;;;;;5107388;27;45063;-79
2023/03/18 06:32:53;;;;;;;1.65;0.60;;;17.10;63.80;;;;;;5106172;27;47042;-79
2023/03/18 06:35:20;;;;;;;0.40;0.30;;;17.10;63.80;;;;;;5107018;27;45207;-79
2023/03/18 06:37:47;;;;;;;1.17;0.40;;;17.10;64.00;;;;;;5107220;27;45203;-79
2023/03/18 06:40:14;;;;;;;0.30;0.30;;;17.10;63.90;;;;;;5107722;27;45058;-79
2023/03/18 06:42:41;;;;;;;0.98;0.40;;;17.10;63.90;;;;;;5106660;27;46973;-79
2023/03/18 06:45:09;;;;;;;1.08;0.55;;;17.10;63.80;;;;;;5107101;27;45265;-79
2023/03/18 06:47:38;;;;;;;0.30;0.30;;;17.10;63.80;;;;;;5110638;27;45143;-79
2023/03/18 06:50:05;;;;;;;0.40;0.40;;;17.10;63.70;;;;;;5107449;27;45144;-79
2023/03/18 06:52:32;;;;;;;0.43;0.38;;;17.10;63.60;;;;;;5106888;27;45742;-79
2023/03/18 06:54:59;;;;;;;1.15;0.40;;;17.10;63.60;;;;;;5106899;27;45284;-79
2023/03/18 06:57:26;;;;;;;1.40;0.40;;;17.10;63.60;;;;;;5107226;27;45223;-79
2023/03/18 06:59:53;;;;;;;1.45;0.50;;;17.10;63.60;;;;;;5107165;27;45094;-79
2023/03/18 07:02:22;;;;;;;1.13;0.52;;;17.10;63.60;;;;;;5106892;27;47600;-79
2023/03/18 07:04:51;;;;;;;0.82;0.47;;;17.20;63.70;;;;;;5107107;27;45229;-78
2023/03/18 07:07:18;;;;;;;0.40;0.40;;;17.10;63.80;;;;;;5107206;27;45157;-78
2023/03/18 07:09:45;;;;;;;0.88;0.60;;;17.10;64.00;;;;;;5107354;27;45372;-78
2023/03/18 07:12:13;;;;;;;0.60;0.40;;;17.00;64.00;;;;;;5106604;27;47590;-79
2023/03/18 07:14:40;;;;;;;1.00;0.40;;;17.00;64.10;;;;;;5107107;27;45439;-79
2023/03/18 07:17:09;;;;;;;1.95;0.70;;;17.00;64.30;;;;;;5106936;27;45104;-79
2023/03/18 07:19:36;;;;;;;0.40;0.30;;;17.00;65.30;;;;;;5106920;27;45485;-79
2023/03/18 07:22:04;;;;;;;0.30;0.30;;;17.00;64.30;;;;;;5106569;27;47051;-79
2023/03/18 07:24:31;;;;;;;0.40;0.40;;;17.00;64.40;;;;;;5106305;27;45263;-79
2023/03/18 07:26:58;;;;;;;1.40;0.40;;;17.00;64.60;;;;;;5106898;27;45117;-79
2023/03/18 07:29:25;;;;;;;0.65;0.30;;;17.00;64.50;;;;;;5106764;27;45140;-79
2023/03/18 07:31:52;;;;;;;0.60;0.40;;;17.00;64.40;;;;;;5106540;27;46680;-79
2023/03/18 07:34:20;;;;;;;0.45;0.35;;;17.10;64.70;;;;;;5106327;27;45358;-79
2023/03/18 07:36:47;;;;;;;1.02;0.40;;;17.00;64.50;;;;;;5106601;27;45212;-80
2023/03/18 07:39:15;;;;;;;0.90;0.50;;;17.00;64.60;;;;;;5107840;27;45106;-79
2023/03/18 07:41:42;;;;;;;1.10;0.43;;;17.10;64.70;;;;;;5108340;27;45378;-79
2023/03/18 07:44:08;;;;;;;0.50;0.40;;;17.10;64.70;;;;;;5108329;27;45264;-79
2023/03/18 07:46:35;;;;;;;0.60;0.45;;;17.10;64.70;;;;;;5110150;27;45327;-80
2023/03/18 07:49:02;;;;;;;0.77;0.40;;;17.10;64.70;;;;;;5109795;27;45166;-79
2023/03/18 07:51:29;;;;;;;0.98;0.50;;;17.10;64.60;;;;;;5109817;27;47069;-78
2023/03/18 07:53:56;;;;;;;0.77;0.30;;;17.10;64.80;;;;;;5109725;27;45230;-78
2023/03/18 07:56:24;;;;;;;1.50;0.63;;;17.10;65.60;;;;;;5109741;27;45263;-78
2023/03/18 07:58:51;;;;;;;0.77;0.45;;;17.10;64.70;;;;;;5110136;27;45372;-80
2023/03/18 08:01:18;;;;;;;0.50;0.40;;;17.10;64.90;;;;;;5109825;27;46327;-79
2023/03/18 08:03:46;;;;;;;0.43;0.43;;;17.10;65.00;;;;;;5109722;27;46126;-71
2023/03/18 08:06:14;;;;;;;0.65;0.40;;;17.10;64.80;;;;;;5129532;27;45304;-80
2023/03/18 08:08:41;;;;;;;1.10;0.35;;;17.10;65.10;;;;;;5130179;27;45727;-79
2023/03/18 08:11:08;;;;;;;0.63;0.40;;;17.10;65.00;;;;;;5130235;27;47239;-79
2023/03/18 08:13:37;;;;;;;0.80;0.32;;;17.10;65.10;;;;;;5130363;27;45082;-80
2023/03/18 08:16:04;;;;;;;0.60;0.43;;;17.10;65.10;;;;;;5129981;27;45298;-80
2023/03/18 08:18:31;;;;;;;0.80;0.40;;;17.10;65.20;;;;;;5130082;27;45395;-81
2023/03/18 08:20:58;;;;;;;0.65;0.60;;;17.10;65.30;;;;;;5129820;27;45742;-81
2023/03/18 08:23:25;;;;;;;0.55;0.30;;;17.10;65.30;;;;;;5130428;27;45159;-81
2023/03/18 08:25:52;;;;;;;0.52;0.40;;;17.00;65.20;;;;;;5130571;27;45109;-81
2023/03/18 08:28:19;;;;;;;0.77;0.40;;;17.10;65.40;;;;;;5129834;27;45158;-79
2023/03/18 08:30:47;;;;;;;1.40;0.40;;;17.10;65.30;;;;;;5130119;27;46513;-80
2023/03/18 08:33:14;;;;;;;0.50;0.30;;;17.10;65.30;;;;;;5133571;27;45125;-79
2023/03/18 08:35:41;;;;;;;0.60;0.28;;;17.10;65.30;;;;;;5130079;27;45302;-78
2023/03/18 08:38:08;;;;;;;0.85;0.32;;;17.00;65.20;;;;;;5129973;27;45415;-79
2023/03/18 08:40:35;;;;;;;0.77;0.50;;;17.00;65.70;;;;;;5129795;27;47267;-79
2023/03/18 08:43:02;;;;;;;1.25;0.38;;;17.00;66.40;;;;;;5129083;27;45266;-78
2023/03/18 08:45:29;;;;;;;1.52;0.50;;;17.10;66.70;;;;;;5129566;27;45237;-79
2023/03/18 08:47:57;;;;;;;0.30;0.20;;;17.10;66.40;;;;;;5130110;27;45290;-81
2023/03/18 08:50:27;;;;;;;1.13;0.40;;;17.20;66.50;;;;;;5129480;27;46993;-82
2023/03/18 08:52:56;;;;;;;1.00;0.43;;;17.20;66.30;;;;;;5129790;27;45235;-82
2023/03/18 08:55:24;;;;;;;1.58;0.50;;;17.20;65.90;;;;;;5128401;27;45235;-81
2023/03/18 08:57:51;;;;;;;1.45;0.50;;;17.20;65.40;;;;;;5129858;27;45463;-80
2023/03/18 09:00:20;;;;;;;1.35;0.43;;;17.30;65.60;;;;;;5129408;27;45245;-82
2023/03/18 09:02:47;;;;;;;0.93;0.35;;;17.20;65.50;;;;;;5129467;27;45124;-82
2023/03/18 09:05:15;;;;;;;0.68;0.38;;;17.30;65.40;;;;;;5129298;27;45256;-81
2023/03/18 09:07:42;;;;;;;0.43;0.40;;;17.30;65.10;;;;;;5129466;27;45166;-79
2023/03/18 09:10:11;;;;;;;0.90;0.30;;;17.20;65.10;;;;;;5129206;27;46798;-81
2023/03/18 09:12:38;;;;;;;1.20;0.45;;;17.30;65.20;;;;;;5128890;27;45898;-81
2023/03/18 09:15:06;;;;;;;2.05;0.40;;;17.30;65.40;;;;;;5129207;27;45146;-81
2023/03/18 09:17:33;;;;;;;0.55;0.47;;;17.20;65.10;;;;;;5129376;27;45281;-80
2023/03/18 09:20:01;;;;;;;1.27;0.30;;;17.30;66.30;;;;;;5129441;27;47025;-80
2023/03/18 09:22:30;;;;;;;0.77;0.52;;;17.20;65.30;;;;;;5128974;27;45067;-80
2023/03/18 09:24:57;;;;;;;0.43;0.30;;;17.20;65.20;;;;;;5131936;27;45247;-80
2023/03/18 09:27:24;;;;;;;2.10;0.60;;;17.20;65.10;;;;;;5130341;27;45113;-80
2023/03/18 09:29:50;;;;;;;0.80;0.30;;;17.20;64.90;;;;;;5129002;27;46684;-80
2023/03/18 09:32:17;;;;;;;0.77;0.40;;;17.20;65.30;;;;;;5129039;27;45335;-80
2023/03/18 09:34:45;;;;;;;1.02;0.32;;;17.30;65.70;;;;;;5129061;27;45223;-80
2023/03/18 09:37:13;;;;;;;1.25;0.50;;;17.20;65.70;;;;;;5128661;27;45284;-79
2023/03/18 09:39:42;;;;;;;0.80;0.50;;;17.30;65.90;;;;;;5128368;27;47935;-79
2023/03/18 09:42:20;;;;;;;0.52;0.30;;;17.30;65.60;;;;;;5128233;27;45420;-80
2023/03/18 09:44:54;;;;;;;0.60;0.40;;;17.30;65.30;;;;;;5128706;27;45192;-80
2023/03/18 09:47:42;;;;;;;1.20;0.40;;;17.30;65.40;;;;;;5129113;27;45527;-80
2023/03/18 09:50:21;;;;;;;0.22;0.20;;;17.40;65.40;;;;;;5128602;27;47053;-80
2023/03/18 09:52:53;;;;;;;1.38;0.55;;;17.40;65.50;;;;;;5128716;27;46109;-80
2023/03/18 09:55:27;;;;;;;0.32;0.30;;;17.40;65.50;;;;;;5128767;27;45127;-80
2023/03/18 09:58:00;;;;;;;0.40;0.30;;;17.40;65.50;;;;;;5128907;27;45136;-80
2023/03/18 10:00:30;;;;;;;1.63;0.38;;;17.40;65.40;;;;;;5128477;27;47011;-80
2023/03/18 10:03:02;;;;;;;0.47;0.40;;;17.40;65.40;;;;;;5125347;27;45145;-79
2023/03/18 10:05:33;;;;;;;1.13;0.35;;;17.40;65.60;;;;;;5129078;27;45214;-79
2023/03/18 10:08:04;;;;;;;0.20;0.20;;;17.40;65.50;;;;;;5128523;27;45188;-79
2023/03/18 10:10:36;;;;;;;0.38;0.28;;;17.40;65.50;;;;;;5128272;27;47960;-79
2023/03/18 10:13:14;;;;;;;0.40;0.30;;;17.40;65.70;;;;;;5128411;27;45405;-79
2023/03/18 10:15:44;;;;;;;0.65;0.30;;;17.40;65.50;;;;;;5128043;27;45225;-79
2023/03/18 10:18:18;;;;;;;0.10;0.10;;;17.40;65.80;;;;;;5132157;27;45184;-80
2023/03/18 10:20:55;;;;;;;0.70;0.40;;;17.40;65.70;;;;;;5128812;27;48107;-80
2023/03/18 10:23:36;;;;;;;0.38;0.30;;;17.40;65.70;;;;;;5128139;27;45196;-79
2023/03/18 10:26:13;;;;;;;0.30;0.28;;;17.40;65.80;;;;;;5128418;27;45316;-79
2023/03/18 10:28:55;;;;;;;0.22;0.20;;;17.40;65.90;;;;;;5128652;27;45433;-79
2023/03/18 10:31:39;;;;;;;0.30;0.20;;;17.40;65.70;;;;;;5127855;27;47727;-79
2023/03/18 10:34:10;;;;;;;0.52;0.28;;;17.30;65.70;;;;;;5109020;27;45269;-80
2023/03/18 10:36:43;;;;;;;0.60;0.30;;;17.40;65.80;;;;;;5107516;27;45210;-80
2023/03/18 10:39:15;;;;;;;0.57;0.30;;;17.40;65.80;;;;;;5107628;27;45246;-79
2023/03/18 10:41:48;;;;;;;0.98;0.30;;;17.40;65.70;;;;;;5106994;27;47643;-80
2023/03/18 10:44:20;;;;;;;0.20;0.20;;;17.40;65.70;;;;;;5107213;27;45387;-79
2023/03/18 10:46:58;;;;;;;0.30;0.20;;;17.40;65.70;;;;;;5107359;27;45225;-80
2023/03/18 10:49:30;;;;;;;0.25;0.15;;;17.40;65.70;;;;;;5107458;27;45138;-80
2023/03/18 10:52:01;;;;;;;0.13;0.10;;;17.40;65.80;;;;;;5106774;27;45485;-80
2023/03/18 10:54:32;;;;;;;0.65;0.20;;;17.40;65.90;;;;;;5107304;27;45273;-81
2023/03/18 10:57:01;;;;;;;0.52;0.25;;;17.40;66.10;;;;;;5106856;27;45236;-80
2023/03/18 10:59:29;;;;;;;1.10;0.50;;;17.40;66.10;;;;;;5107148;27;45059;-80
2023/03/18 11:02:01;;;;;;;0.47;0.20;;;17.40;66.00;;;;;;5106720;27;45220;-79
2023/03/18 11:04:31;;;;;;;0.75;0.30;;;17.40;66.00;;;;;;5107019;27;45137;-80
2023/03/18 11:07:01;;;;;;;0.15;0.15;;;17.50;66.20;;;;;;5106820;27;45224;-80
2023/03/18 11:09:31;;;;;;;2.00;0.20;;;17.40;66.00;;;;;;5106970;27;45198;-80
2023/03/18 11:12:04;;;;;;;1.02;0.40;;;17.40;66.00;;;;;;5111045;27;47050;-80
2023/03/18 11:14:32;;;;;;;0.30;0.20;;;17.40;66.00;;;;;;5106888;27;45387;-80
2023/03/18 11:17:01;;;;;;;0.30;0.30;;;17.40;65.80;;;;;;5106751;27;45142;-80
2023/03/18 11:19:31;;;;;;;0.20;0.20;;;17.40;65.90;;;;;;5109160;27;45542;-80
2023/03/18 11:22:05;;;;;;;0.85;0.20;;;17.40;66.00;;;;;;5110203;27;48659;-80
2023/03/18 11:24:38;;;;;;;0.60;0.20;;;17.40;66.00;;;;;;5110230;27;45494;-80
2023/03/18 11:27:24;;;;;;;0.38;0.17;;;17.40;65.90;;;;;;5110634;27;45176;-80
2023/03/18 11:29:56;;;;;;;0.40;0.25;;;17.40;66.20;;;;;;5110686;27;45486;-80
2023/03/18 11:32:26;;;;;;;0.52;0.30;;;17.40;66.20;;;;;;5110211;27;48263;-80
2023/03/18 11:34:57;;;;;;;0.50;0.30;;;17.40;66.10;;;;;;5109959;27;45254;-80
2023/03/18 11:37:27;;;;;;;0.32;0.20;;;17.40;66.20;;;;;;5110364;27;45284;-80
2023/03/18 11:40:07;;;;;;;0.50;0.22;;;17.40;65.90;;;;;;5110343;27;45139;-80
2023/03/18 11:42:39;;;;;;;0.47;0.20;;;17.40;66.00;;;;;;5109745;27;48752;-80
2023/03/18 11:45:23;;;;;;;0.35;0.30;;;17.40;65.90;;;;;;5110442;27;45117;-80
2023/03/18 11:47:50;;;;;;;0.43;0.30;;;17.40;65.80;;;;;;5110270;27;45119;-80
2023/03/18 11:50:20;;;;;;;0.25;0.20;;;17.40;66.90;;;;;;5109821;27;45241;-80
2023/03/18 11:52:55;;;;;;;0.35;0.20;;;17.40;65.90;;;;;;5109920;27;45612;-80
2023/03/18 11:55:36;;;;;;;0.65;0.20;;;17.40;65.90;;;;;;5109888;27;45212;-80
2023/03/18 11:58:38;;;;;;;0.10;0.10;;;17.40;66.10;;;;;;5109864;27;45133;-80
2023/03/18 12:01:13;;;;;;;0.40;0.17;;;17.40;66.00;;;;;;5109909;27;45180;-80
2023/03/18 12:04:07;;;;;;;0.47;0.30;;;17.40;66.20;;;;;;5112930;27;48572;-79
2023/03/18 12:06:41;;;;;;;0.45;0.20;;;17.40;66.10;;;;;;5110424;27;45150;-80
2023/03/18 12:09:16;;;;;;;0.22;0.20;;;17.40;66.30;;;;;;5109762;27;45469;-80
2023/03/18 12:11:56;;;;;;;0.73;0.40;;;17.40;66.10;;;;;;5109486;27;45445;-80
2023/03/18 12:14:31;;;;;;;0.28;0.10;;;17.40;66.30;;;;;;5109418;27;46770;-80
2023/03/18 12:17:08;;;;;;;0.85;0.20;;;17.40;66.50;;;;;;5109631;27;45231;-80
2023/03/18 12:19:52;;;;;;;0.82;0.47;;;17.40;66.30;;;;;;5109918;27;45148;-80
2023/03/18 12:22:34;;;;;;;0.57;0.30;;;17.40;66.40;;;;;;5109303;27;45585;-79
2023/03/18 12:25:29;;;;;;;0.63;0.30;;;17.40;66.40;;;;;;5109381;27;47313;-80
2023/03/18 12:28:03;;;;;;;0.08;0.08;;;17.40;66.30;;;;;;5109641;27;45191;-81
2023/03/18 12:30:58;;;;;;;0.45;0.35;;;17.40;66.30;;;;;;5108231;27;45243;-80
2023/03/18 12:33:43;;;;;;;0.10;0.10;;;17.40;66.20;;;;;;5109522;27;45614;-80
2023/03/18 12:36:18;;;;;;;0.43;0.30;;;17.40;66.40;;;;;;5108942;27;46726;-80
2023/03/18 12:39:10;;;;;;;0.20;0.20;;;17.40;66.20;;;;;;5108907;27;45991;-80
2023/03/18 12:41:46;;;;;;;0.22;0.13;;;17.40;66.30;;;;;;5108864;27;45158;-80
2023/03/18 12:44:25;;;;;;;0.73;0.20;;;17.40;66.10;;;;;;5109283;27;45376;-80
2023/03/18 12:46:58;;;;;;;0.20;0.20;;;17.40;66.30;;;;;;5108799;27;45517;-80
2023/03/18 12:49:29;;;;;;;0.32;0.10;;;17.40;66.10;;;;;;5109150;27;45222;-80
2023/03/18 12:52:02;;;;;;;0.52;0.20;;;17.40;66.00;;;;;;5109344;27;45208;-80
2023/03/18 12:54:33;;;;;;;0.20;0.20;;;17.40;66.10;;;;;;5109154;27;45419;-80
2023/03/18 12:57:05;;;;;;;0.88;0.20;;;17.40;66.10;;;;;;5112710;27;47612;-80
2023/03/18 12:59:38;;;;;;;1.00;0.20;;;17.40;66.10;;;;;;5108931;27;45237;-80